Terminal Aerodrome Forecast
Issued by NWS Wilmington, OH

Current Version | Previous Version | Text Only | Print | Product List | Glossary Off
Versions: 1 2 3 4 5 6 7 8 9 10 11 12 13 14 15 16 17 18 19

000
FTUS41 KILN 021100
TAFDAY
TAF
KDAY 021127Z 0212/0312 30009KT 6SM HZ BKN015
     FM021230 30008KT P6SM SCT015 BKN200
     FM022100 33004KT P6SM SCT025 BKN150
     FM030000 10005KT P6SM SCT025 OVC120=

USA.gov is the U.S. government's official web portal to all federal, state and local government web resources and services.